Time;durP1;ratioP1;P1;durP2;ratioP2;P2;SDS_P1;SDS_P2;PMS_P1;PMS_P2;Temp;Humidity;BMP_temperature;BMP_pressure;BME280_temperature;BME280_humidity;BME280_pressure;Samples;Min_cycle;Max_cycle;Signal;HPM_P1;HPM_P2
2022/03/20 00:00:35;;;;;;;10.45;4.07;;;24.60;72.60;;;;;;6176452;23;20080;-71
2022/03/20 00:03:12;;;;;;;9.95;3.45;;;24.50;72.60;;;;;;6174974;23;20014;-71
2022/03/20 00:05:40;;;;;;;11.95;3.42;;;24.60;72.70;;;;;;6176323;22;20339;-71
2022/03/20 00:08:09;;;;;;;11.18;3.65;;;24.60;72.80;;;;;;6174992;23;20466;-70
2022/03/20 00:10:44;;;;;;;8.93;3.53;;;24.50;72.70;;;;;;6176258;23;19994;-70
2022/03/20 00:13:11;;;;;;;;;;;24.50;72.60;;;;;;6176802;23;20009;-71
2022/03/20 00:15:41;;;;;;;12.57;4.30;;;24.50;72.50;;;;;;6175428;23;20262;-71
2022/03/20 00:18:09;;;;;;;12.10;3.30;;;24.60;72.40;;;;;;6176766;23;20005;-71
2022/03/20 00:20:38;;;;;;;12.73;3.97;;;24.50;72.40;;;;;;6174758;23;20013;-71
2022/03/20 00:23:07;;;;;;;10.30;4.07;;;24.50;72.20;;;;;;6176378;23;20009;-71
2022/03/20 00:25:38;;;;;;;12.02;3.92;;;24.50;72.10;;;;;;6174850;23;20004;-71
2022/03/20 00:28:05;;;;;;;12.90;4.57;;;24.50;72.00;;;;;;6175663;23;20005;-71
2022/03/20 00:30:32;;;;;;;11.82;4.43;;;24.40;72.00;;;;;;6176786;23;20046;-70
2022/03/20 00:32:59;;;;;;;18.25;4.65;;;24.40;71.80;;;;;;6175248;23;20001;-71
2022/03/20 00:35:25;;;;;;;15.15;4.00;;;24.40;71.80;;;;;;6176222;23;20328;-71
2022/03/20 00:37:52;;;;;;;14.95;5.25;;;24.40;71.80;;;;;;6174747;23;20056;-71
2022/03/20 00:40:19;;;;;;;10.73;3.80;;;24.40;71.80;;;;;;6176339;23;20001;-71
2022/03/20 00:42:53;;;;;;;17.55;4.13;;;24.40;71.60;;;;;;6174570;23;20045;-71
2022/03/20 00:45:20;;;;;;;;;;;24.40;71.50;;;;;;6279293;22;20005;-71
2022/03/20 00:47:48;;;;;;;17.00;3.85;;;24.40;71.40;;;;;;6176178;23;20228;-71
2022/03/20 00:50:14;;;;;;;19.33;5.82;;;24.40;71.40;;;;;;6175015;23;20009;-71
2022/03/20 00:52:41;;;;;;;10.25;4.82;;;24.40;71.40;;;;;;6176165;23;20416;-71
2022/03/20 00:55:08;;;;;;;17.13;5.32;;;24.30;71.30;;;;;;6175138;23;20008;-71
2022/03/20 00:57:34;;;;;;;16.33;3.65;;;24.30;71.40;;;;;;6176030;23;20477;-71
2022/03/20 01:00:01;;;;;;;16.50;4.70;;;24.30;71.40;;;;;;6175492;23;20420;-71
2022/03/20 01:02:27;;;;;;;14.93;4.65;;;24.20;71.40;;;;;;6175861;23;20092;-71
2022/03/20 01:04:54;;;;;;;19.30;5.55;;;24.20;71.50;;;;;;6175404;23;20009;-71
2022/03/20 01:07:20;;;;;;;15.32;4.00;;;24.20;71.60;;;;;;6174984;23;20084;-71
2022/03/20 01:09:47;;;;;;;18.55;4.78;;;24.20;71.80;;;;;;6175622;23;20062;-71
2022/03/20 01:12:14;;;;;;;12.40;4.15;;;24.20;71.90;;;;;;6175724;23;20008;-71
2022/03/20 01:14:40;;;;;;;15.60;4.25;;;24.10;72.00;;;;;;6177195;23;20009;-71
2022/03/20 01:17:07;;;;;;;11.45;3.97;;;24.10;72.20;;;;;;6175724;23;20016;-71
2022/03/20 01:19:33;;;;;;;13.25;3.75;;;24.10;72.20;;;;;;6177165;23;20381;-71
2022/03/20 01:22:00;;;;;;;12.52;3.58;;;24.10;72.40;;;;;;6176893;23;20013;-71
2022/03/20 01:24:28;;;;;;;15.52;4.22;;;24.10;72.40;;;;;;6176620;23;20353;-71
2022/03/20 01:26:55;;;;;;;10.18;3.42;;;24.10;72.50;;;;;;6176730;23;20031;-70
2022/03/20 01:29:21;;;;;;;13.63;4.60;;;24.00;72.50;;;;;;6175789;23;20001;-71
2022/03/20 01:31:49;;;;;;;15.75;4.60;;;24.00;72.60;;;;;;6177358;23;19998;-71
2022/03/20 01:34:15;;;;;;;16.67;3.95;;;24.00;72.60;;;;;;6175991;23;20013;-71
2022/03/20 01:36:42;;;;;;;10.73;4.43;;;24.00;72.70;;;;;;6177218;23;19997;-72
2022/03/20 01:39:09;;;;;;;12.45;4.65;;;24.00;72.70;;;;;;6176780;23;20009;-71
2022/03/20 01:41:35;;;;;;;18.58;3.63;;;24.00;72.70;;;;;;6176572;23;20009;-70
2022/03/20 01:44:03;;;;;;;16.13;4.82;;;24.00;72.80;;;;;;6176938;23;20005;-70
2022/03/20 01:46:32;;;;;;;12.55;4.35;;;24.00;72.80;;;;;;6175487;23;20001;-69
2022/03/20 01:48:59;;;;;;;12.68;3.92;;;24.00;72.80;;;;;;6177253;23;20080;-70
2022/03/20 01:54:14;;;;;;;18.48;4.40;;;23.90;72.80;;;;;;6177235;23;20489;-71
2022/03/20 01:56:46;;;;;;;12.52;3.83;;;23.90;72.90;;;;;;6176309;23;20012;-71
2022/03/20 01:59:14;;;;;;;18.42;4.40;;;23.90;72.90;;;;;;6176430;23;20000;-70
2022/03/20 02:01:44;;;;;;;17.55;4.70;;;23.90;72.90;;;;;;6176568;23;20036;-70
2022/03/20 02:04:15;;;;;;;15.23;4.00;;;23.90;73.00;;;;;;6278037;22;20001;-70
2022/03/20 02:06:42;;;;;;;17.35;6.25;;;23.90;73.10;;;;;;6176624;23;20001;-71
2022/03/20 02:09:10;;;;;;;16.60;5.53;;;23.90;73.10;;;;;;6175646;23;20122;-70
2022/03/20 02:11:37;;;;;;;14.75;4.28;;;23.80;73.10;;;;;;6177075;23;20016;-70
2022/03/20 02:14:05;;;;;;;16.40;4.82;;;23.80;73.20;;;;;;6176509;23;20004;-70
2022/03/20 02:16:32;;;;;;;18.90;5.15;;;23.80;73.30;;;;;;6175294;23;20090;-70
2022/03/20 02:19:04;;;;;;;16.92;5.95;;;23.80;73.40;;;;;;6177166;23;20089;-70
2022/03/20 02:21:43;;;;;;;16.05;4.75;;;23.80;73.40;;;;;;6277371;22;20032;-70
2022/03/20 02:24:34;;;;;;;13.80;6.28;;;23.70;73.40;;;;;;6177236;23;20005;-70
2022/03/20 02:27:06;;;;;;;15.35;4.45;;;23.70;73.50;;;;;;6177023;23;20015;-70
2022/03/20 02:29:33;;;;;;;23.27;5.88;;;23.70;73.70;;;;;;6176429;22;20001;-70
2022/03/20 02:32:05;;;;;;;19.67;4.95;;;23.70;73.80;;;;;;6177466;23;20001;-71
2022/03/20 02:34:32;;;;;;;13.90;5.35;;;23.70;73.80;;;;;;6278896;22;20082;-70
2022/03/20 02:37:00;;;;;;;19.08;5.57;;;23.70;74.50;;;;;;6177224;23;20008;-70
2022/03/20 02:39:28;;;;;;;14.13;4.28;;;23.70;73.80;;;;;;6176279;23;20378;-69
2022/03/20 02:41:57;;;;;;;12.38;3.70;;;23.70;74.00;;;;;;6177061;23;20026;-70
2022/03/20 02:44:58;;;;;;;11.85;3.35;;;23.70;73.90;;;;;;6177377;22;20320;-69
2022/03/20 02:47:26;;;;;;;16.88;4.15;;;23.70;74.00;;;;;;6175991;23;20326;-69
2022/03/20 02:49:56;;;;;;;11.90;4.13;;;23.70;74.10;;;;;;6176726;22;20104;-70
2022/03/20 02:52:42;;;;;;;9.70;3.92;;;23.70;74.10;;;;;;6175936;23;20103;-70
2022/03/20 02:55:09;;;;;;;16.85;4.68;;;23.70;74.20;;;;;;6176795;23;20008;-69
2022/03/20 02:57:36;;;;;;;20.80;5.60;;;23.70;74.20;;;;;;6176635;23;20005;-69
2022/03/20 03:00:06;;;;;;;16.00;4.90;;;23.70;74.20;;;;;;6175694;23;20001;-69
2022/03/20 03:02:42;;;;;;;14.68;4.57;;;23.70;74.10;;;;;;6176480;23;20016;-69
2022/03/20 03:05:10;;;;;;;13.18;4.65;;;23.70;74.00;;;;;;6175877;23;20029;-70
2022/03/20 03:10:55;;;;;;;20.17;4.30;;;23.60;73.90;;;;;;6176769;22;20005;-69
2022/03/20 03:13:12;;;;;;;16.95;4.97;;;23.60;73.80;;;;;;6175365;23;20063;-70
2022/03/20 03:15:39;;;;;;;13.30;4.82;;;23.60;73.90;;;;;;6176332;23;20035;-70
2022/03/20 03:18:05;;;;;;;17.98;5.25;;;23.60;74.00;;;;;;6175421;23;20033;-69
2022/03/20 03:20:36;;;;;;;17.70;4.40;;;23.60;74.10;;;;;;6176685;23;20069;-70
2022/03/20 03:23:03;;;;;;;17.92;4.55;;;23.60;74.10;;;;;;6279508;22;20084;-70
2022/03/20 03:25:35;;;;;;;13.70;4.47;;;23.50;74.10;;;;;;6175841;23;20004;-70
2022/03/20 03:28:02;;;;;;;11.80;4.50;;;23.50;74.00;;;;;;6176951;23;19997;-69
2022/03/20 03:30:29;;;;;;;18.50;3.75;;;23.60;74.10;;;;;;6175709;23;19993;-70
2022/03/20 03:32:57;;;;;;;30.73;5.13;;;23.50;74.00;;;;;;6177329;22;20076;-70
2022/03/20 03:35:41;;;;;;;18.20;4.97;;;23.50;74.10;;;;;;6175933;22;20043;-70
2022/03/20 03:38:10;;;;;;;27.13;6.00;;;23.50;74.20;;;;;;6176122;23;20058;-70
2022/03/20 03:40:40;;;;;;;20.67;4.63;;;23.50;74.20;;;;;;6176151;23;20001;-70
2022/03/20 03:43:09;;;;;;;17.98;4.55;;;23.50;74.20;;;;;;6175730;22;20107;-71
2022/03/20 03:45:39;;;;;;;15.52;5.03;;;23.50;74.20;;;;;;6176916;23;20005;-71
2022/03/20 03:48:06;;;;;;;18.95;3.95;;;23.50;74.30;;;;;;6175226;23;20336;-70
2022/03/20 03:50:34;;;;;;;40.28;14.52;;;23.50;74.40;;;;;;6176222;23;20012;-70
2022/03/20 03:53:00;;;;;;;33.42;13.60;;;23.50;74.60;;;;;;6176339;22;20013;-70
2022/03/20 03:55:27;;;;;;;23.02;6.95;;;23.50;74.70;;;;;;6175818;23;20005;-70
2022/03/20 03:57:53;;;;;;;22.00;5.97;;;23.40;74.70;;;;;;6176692;23;20005;-70
2022/03/20 04:00:21;;;;;;;23.70;6.30;;;23.40;75.00;;;;;;6174993;23;20080;-70
2022/03/20 04:02:48;;;;;;;11.63;3.85;;;23.40;75.20;;;;;;6176488;23;20102;-70
2022/03/20 04:05:17;;;;;;;12.50;4.10;;;23.50;75.40;;;;;;6175015;23;20352;-70
2022/03/20 04:07:45;;;;;;;20.52;4.55;;;23.40;75.40;;;;;;6176268;23;19997;-71
2022/03/20 04:10:12;;;;;;;12.38;4.32;;;23.40;75.40;;;;;;6175469;23;20001;-70
2022/03/20 04:12:43;;;;;;;13.35;3.88;;;23.40;75.30;;;;;;6176093;23;20102;-70
2022/03/20 04:15:16;;;;;;;10.50;3.78;;;23.40;75.30;;;;;;6176316;22;20494;-70
2022/03/20 04:17:43;;;;;;;14.68;5.68;;;23.40;74.90;;;;;;6277713;22;20009;-70
2022/03/20 04:20:12;;;;;;;15.50;5.07;;;23.40;75.20;;;;;;6176183;22;20013;-70
2022/03/20 04:23:42;;;;;;;11.23;3.80;;;23.50;75.20;;;;;;6174919;23;20058;-70
2022/03/20 04:25:27;;;;;;;13.10;3.83;;;23.40;75.00;;;;;;6176222;22;20466;-70
2022/03/20 04:27:56;;;;;;;14.80;4.20;;;23.40;75.10;;;;;;6176332;23;20020;-70
2022/03/20 04:30:26;;;;;;;13.40;4.70;;;23.50;75.10;;;;;;6175361;23;20076;-70
2022/03/20 04:32:54;;;;;;;13.77;4.95;;;23.40;75.00;;;;;;6176286;22;20051;-70
2022/03/20 04:35:23;;;;;;;20.92;5.60;;;23.40;75.00;;;;;;6278253;22;20019;-70
2022/03/20 04:37:54;;;;;;;20.10;4.78;;;23.40;74.90;;;;;;6175988;23;20005;-70
2022/03/20 04:40:21;;;;;;;14.50;5.78;;;23.40;74.80;;;;;;6175487;23;20084;-71
2022/03/20 04:42:51;;;;;;;21.83;4.75;;;23.40;74.90;;;;;;6175658;23;20086;-70
2022/03/20 04:45:18;;;;;;;22.30;5.85;;;23.40;74.90;;;;;;6176502;22;20005;-70
2022/03/20 04:59:01;;;;;;;37.90;13.52;;;23.20;75.30;;;;;;6235588;23;20557;-70
2022/03/20 05:01:27;;;;;;;26.63;9.30;;;23.30;75.90;;;;;;6184520;22;20011;-70
2022/03/20 05:03:55;;;;;;;32.38;8.30;;;23.20;75.80;;;;;;6174395;23;20001;-70
2022/03/20 05:06:24;;;;;;;17.15;5.35;;;23.20;75.90;;;;;;6302439;22;20005;-71
2022/03/20 05:08:50;;;;;;;24.58;5.68;;;23.20;75.90;;;;;;6274333;22;20001;-70
2022/03/20 05:14:02;;;;;;;22.45;5.85;;;23.20;75.80;;;;;;6173393;23;20011;-70
2022/03/20 05:16:28;;;;;;;19.98;4.28;;;23.20;75.70;;;;;;6173759;23;20001;-70
2022/03/20 05:18:55;;;;;;;16.92;5.30;;;23.20;75.60;;;;;;6172104;23;20020;-69
2022/03/20 05:21:22;;;;;;;21.65;4.82;;;23.20;75.70;;;;;;6173464;23;20008;-70
2022/03/20 05:23:48;;;;;;;13.38;5.45;;;23.20;75.70;;;;;;6173132;23;20013;-70
2022/03/20 05:26:15;;;;;;;15.27;4.63;;;23.20;75.70;;;;;;6173301;23;20068;-69
2022/03/20 05:28:41;;;;;;;16.13;4.03;;;23.20;75.80;;;;;;6174419;23;20001;-69
2022/03/20 05:31:08;;;;;;;14.38;4.30;;;23.20;75.70;;;;;;6173622;23;20031;-69
2022/03/20 05:33:35;;;;;;;18.15;5.45;;;23.20;75.80;;;;;;6174807;23;20124;-69
2022/03/20 05:36:02;;;;;;;19.02;4.88;;;23.20;75.80;;;;;;6173865;23;20055;-69
2022/03/20 05:38:30;;;;;;;16.42;5.10;;;23.20;75.90;;;;;;6175097;22;20444;-69
2022/03/20 05:41:45;;;;;;;18.88;4.32;;;23.20;76.10;;;;;;6174751;23;20004;-72
2022/03/20 05:43:43;;;;;;;20.50;6.00;;;23.20;76.00;;;;;;6173773;22;20017;-70
2022/03/20 05:46:09;;;;;;;33.28;14.75;;;23.20;76.30;;;;;;6175163;23;20008;-70
2022/03/20 05:48:37;;;;;;;21.30;12.70;;;23.20;76.80;;;;;;6174045;23;20102;-69
2022/03/20 05:51:04;;;;;;;30.90;8.02;;;23.20;77.10;;;;;;6174651;22;20028;-68
2022/03/20 05:53:30;;;;;;;19.95;6.28;;;23.20;77.00;;;;;;6173579;22;20009;-68
2022/03/20 05:58:42;;;;;;;14.38;4.68;;;23.20;76.90;;;;;;6176360;23;20023;-69
2022/03/20 06:01:09;;;;;;;20.23;5.35;;;23.20;76.90;;;;;;6175837;22;20343;-69
2022/03/20 06:03:35;;;;;;;14.50;3.63;;;23.30;76.90;;;;;;6176866;23;20020;-69
2022/03/20 06:06:02;;;;;;;9.65;3.85;;;23.30;77.00;;;;;;6175077;23;20076;-69
2022/03/20 06:08:29;;;;;;;14.85;4.68;;;23.30;77.00;;;;;;6175280;23;20001;-69
2022/03/20 06:10:56;;;;;;;14.98;4.40;;;23.30;77.10;;;;;;6175610;23;20068;-69
2022/03/20 06:13:22;;;;;;;25.42;4.95;;;23.30;77.10;;;;;;6175937;23;20008;-69
2022/03/20 06:15:49;;;;;;;15.07;5.50;;;23.30;77.40;;;;;;6174972;23;20013;-68
2022/03/20 06:18:15;;;;;;;12.90;3.72;;;23.30;77.80;;;;;;6175964;23;20021;-70
2022/03/20 06:20:42;;;;;;;15.63;4.05;;;23.40;77.80;;;;;;6176140;23;20001;-70
2022/03/20 06:23:08;;;;;;;10.45;5.18;;;23.40;77.70;;;;;;6175576;23;20083;-70
2022/03/20 06:25:35;;;;;;;14.57;8.13;;;23.40;77.60;;;;;;6176643;23;20001;-70
2022/03/20 06:28:02;;;;;;;18.63;11.98;;;23.40;77.40;;;;;;6175218;22;20420;-69
2022/03/20 06:30:33;;;;;;;18.83;8.70;;;23.40;77.40;;;;;;6175759;23;20483;-71
2022/03/20 06:33:02;;;;;;;12.55;6.40;;;23.50;77.40;;;;;;6175869;23;20001;-70
2022/03/20 06:35:28;;;;;;;15.35;5.82;;;23.50;77.30;;;;;;6174892;23;20013;-70
2022/03/20 06:37:55;;;;;;;15.48;5.70;;;23.60;77.20;;;;;;6176820;23;20455;-70
2022/03/20 06:40:22;;;;;;;20.27;4.72;;;23.60;77.00;;;;;;6175719;23;20076;-69
2022/03/20 06:42:49;;;;;;;11.70;5.13;;;23.60;76.80;;;;;;6175851;23;20020;-71
2022/03/20 06:45:18;;;;;;;20.17;4.63;;;23.60;76.70;;;;;;6175158;23;20420;-71
2022/03/20 06:47:44;;;;;;;20.83;6.13;;;23.70;76.70;;;;;;6175926;23;20685;-71
2022/03/20 06:50:12;;;;;;;13.60;6.18;;;23.70;77.10;;;;;;6174353;23;20008;-70
2022/03/20 06:52:39;;;;;;;12.30;5.43;;;23.80;76.30;;;;;;6174580;23;19993;-70
2022/03/20 06:55:07;;;;;;;14.68;4.82;;;23.80;76.10;;;;;;6175679;23;20054;-72
2022/03/20 06:57:34;;;;;;;9.93;4.55;;;23.80;76.00;;;;;;6173906;23;20005;-70
2022/03/20 07:00:03;;;;;;;13.98;4.72;;;23.80;75.80;;;;;;6175462;22;20005;-69
2022/03/20 07:02:30;;;;;;;12.85;5.10;;;23.90;75.70;;;;;;6174623;23;20360;-72
2022/03/20 07:04:56;;;;;;;13.02;4.05;;;23.90;75.50;;;;;;6175221;23;20001;-70
2022/03/20 07:07:23;;;;;;;14.80;4.00;;;24.00;75.40;;;;;;6175037;23;20036;-73
2022/03/20 07:09:50;;;;;;;9.77;3.83;;;24.00;75.10;;;;;;6174686;23;20005;-70
2022/03/20 07:12:17;;;;;;;11.43;3.70;;;24.00;74.90;;;;;;6176959;23;20335;-71
2022/03/20 07:14:44;;;;;;;10.60;3.53;;;24.00;74.70;;;;;;6175220;23;20340;-72
2022/03/20 07:17:12;;;;;;;21.35;6.57;;;24.00;74.50;;;;;;6175836;23;20012;-75
2022/03/20 07:19:44;;;;;;;20.55;6.43;;;24.10;74.40;;;;;;6174771;23;20428;-71
2022/03/20 07:22:14;;;;;;;25.77;6.35;;;24.10;75.00;;;;;;6175171;23;20012;-71
2022/03/20 07:24:43;;;;;;;13.88;5.57;;;24.20;74.20;;;;;;6275693;22;20005;-69
2022/03/20 07:29:57;;;;;;;27.50;5.50;;;24.20;74.00;;;;;;6176808;23;20041;-75
2022/03/20 07:32:24;;;;;;;11.88;4.32;;;24.20;74.00;;;;;;6174533;23;20356;-71
2022/03/20 07:34:51;;;;;;;10.52;3.53;;;24.30;74.00;;;;;;6175449;22;20130;-72
2022/03/20 07:37:18;;;;;;;15.60;4.30;;;24.30;73.90;;;;;;6279125;22;20378;-73
2022/03/20 07:39:46;;;;;;;18.77;4.55;;;24.30;73.70;;;;;;6176296;23;20001;-71
2022/03/20 07:42:15;;;;;;;11.55;4.65;;;24.30;74.30;;;;;;6176149;23;20407;-74
2022/03/20 07:44:45;;;;;;;19.63;4.15;;;24.40;73.60;;;;;;6175860;23;20007;-71
2022/03/20 07:47:23;;;;;;;18.63;5.47;;;24.40;73.40;;;;;;6176246;23;20054;-73
2022/03/20 07:49:50;;;;;;;16.17;5.05;;;24.50;74.10;;;;;;6174745;23;20555;-71
2022/03/20 07:52:18;;;;;;;14.82;6.72;;;24.50;73.40;;;;;;6175676;23;20069;-72
2022/03/20 07:54:45;;;;;;;15.75;5.45;;;24.50;73.40;;;;;;6175247;23;20004;-71
2022/03/20 07:57:12;;;;;;;17.92;5.55;;;24.60;73.40;;;;;;6175120;23;20005;-73
2022/03/20 07:59:39;;;;;;;28.15;5.32;;;24.70;73.40;;;;;;6176199;23;20005;-72
2022/03/20 08:02:06;;;;;;;24.85;5.90;;;24.70;73.40;;;;;;6174214;23;20013;-73
2022/03/20 08:04:33;;;;;;;11.90;4.18;;;24.70;73.30;;;;;;6175795;23;20019;-71
2022/03/20 08:07:00;;;;;;;17.55;4.30;;;24.80;73.30;;;;;;6174930;23;20455;-78
2022/03/20 08:09:28;;;;;;;18.05;4.57;;;24.90;73.30;;;;;;6177041;23;19997;-80
2022/03/20 08:11:55;;;;;;;14.38;4.57;;;24.90;73.20;;;;;;6175458;23;20001;-73
2022/03/20 08:14:23;;;;;;;25.63;5.13;;;24.90;73.00;;;;;;6176068;23;20084;-76
2022/03/20 08:16:50;;;;;;;17.08;5.22;;;25.00;72.80;;;;;;6175958;23;20005;-77
2022/03/20 08:19:19;;;;;;;16.63;5.40;;;25.00;72.60;;;;;;6175181;23;20000;-70
2022/03/20 08:21:49;;;;;;;17.23;4.90;;;25.10;72.40;;;;;;6175397;23;20117;-76
2022/03/20 08:24:17;;;;;;;13.88;5.63;;;25.10;72.20;;;;;;6174491;23;20032;-75
2022/03/20 08:26:44;;;;;;;16.92;5.80;;;25.20;72.00;;;;;;6277442;22;20002;-70
2022/03/20 08:29:13;;;;;;;48.42;7.75;;;25.20;71.80;;;;;;6175684;23;20101;-77
2022/03/20 08:31:44;;;;;;;101.18;14.85;;;25.30;71.90;;;;;;6175229;23;19997;-72
2022/03/20 08:34:11;;;;;;;56.45;11.88;;;25.30;72.10;;;;;;6176081;23;20009;-73
2022/03/20 08:36:38;;;;;;;38.65;9.15;;;25.30;71.70;;;;;;6174655;23;20001;-73
2022/03/20 08:39:05;;;;;;;23.50;7.28;;;25.40;71.70;;;;;;6176026;23;20066;-74
2022/03/20 08:41:32;;;;;;;23.55;6.68;;;25.40;71.80;;;;;;6175219;23;19997;-72
2022/03/20 08:43:58;;;;;;;21.25;5.63;;;25.40;71.50;;;;;;6176274;23;20032;-75
2022/03/20 08:46:33;;;;;;;23.70;6.13;;;25.40;71.40;;;;;;6174575;23;20002;-72
2022/03/20 08:49:03;;;;;;;27.70;6.85;;;25.50;71.50;;;;;;6278428;22;20405;-73
2022/03/20 08:51:31;;;;;;;16.02;8.23;;;25.50;71.80;;;;;;6175716;23;20001;-77
2022/03/20 08:53:58;;;;;;;17.35;9.35;;;25.50;71.60;;;;;;6173767;23;20332;-72
2022/03/20 08:56:25;;;;;;;19.88;7.10;;;25.60;71.40;;;;;;6278382;22;20317;-77
2022/03/20 08:58:51;;;;;;;29.65;7.53;;;25.60;71.10;;;;;;6172837;23;20355;-72
2022/03/20 09:01:18;;;;;;;16.48;5.95;;;25.70;70.80;;;;;;6174214;23;20054;-71
2022/03/20 09:03:49;;;;;;;11.15;5.20;;;25.70;70.70;;;;;;6173127;23;20013;-78
2022/03/20 09:06:17;;;;;;;15.27;5.88;;;25.80;70.70;;;;;;6173877;23;20370;-77
2022/03/20 09:08:43;;;;;;;14.48;5.43;;;25.80;70.50;;;;;;6175815;23;20417;-79
2022/03/20 09:11:10;;;;;;;10.52;4.75;;;25.90;70.10;;;;;;6174499;23;20306;-75
2022/03/20 09:13:37;;;;;;;13.60;5.03;;;26.00;69.70;;;;;;6174986;23;20007;-77
2022/03/20 09:19:00;;;;;;;;;;;26.00;69.00;;;;;;6178610;23;20020;-75
2022/03/20 09:21:33;;;;;;;14.57;4.03;;;26.10;68.70;;;;;;6174939;23;19907;-84
2022/03/20 09:24:02;;;;;;;21.60;8.48;;;26.20;69.10;;;;;;6174466;23;20078;-75
2022/03/20 09:26:29;;;;;;;42.42;9.93;;;26.20;69.60;;;;;;6175316;23;20004;-80
2022/03/20 09:28:56;;;;;;;20.85;7.43;;;26.20;69.80;;;;;;6174184;23;20093;-71
2022/03/20 09:31:24;;;;;;;29.60;7.45;;;26.20;69.20;;;;;;6175234;23;20332;-76
2022/03/20 09:33:51;;;;;;;17.95;4.68;;;26.30;69.30;;;;;;6175265;23;20028;-72
2022/03/20 09:36:17;;;;;;;14.32;3.95;;;26.40;68.50;;;;;;6176801;23;20072;-72
2022/03/20 09:38:44;;;;;;;22.27;5.85;;;26.50;67.70;;;;;;6176583;23;20440;-71
2022/03/20 09:41:11;;;;;;;15.43;4.13;;;26.50;66.90;;;;;;6176094;23;20001;-71
2022/03/20 09:43:43;;;;;;;7.95;3.55;;;26.50;66.90;;;;;;6182608;22;20018;-70
2022/03/20 09:46:09;;;;;;;18.63;4.38;;;26.60;66.70;;;;;;6176016;23;20001;-71
2022/03/20 09:48:36;;;;;;;9.32;4.10;;;26.60;67.20;;;;;;6177849;23;19997;-71
2022/03/20 09:51:04;;;;;;;16.50;4.43;;;26.70;67.00;;;;;;6175816;23;20073;-71
2022/03/20 09:53:32;;;;;;;16.52;3.65;;;26.80;66.70;;;;;;6176692;23;20413;-71
2022/03/20 09:55:59;;;;;;;14.98;4.63;;;26.80;66.70;;;;;;6177098;23;20001;-72
2022/03/20 09:58:31;;;;;;;14.25;5.03;;;26.90;66.50;;;;;;6176248;23;20033;-71
2022/03/20 10:01:00;;;;;;;18.63;4.50;;;26.90;66.20;;;;;;6280081;22;20013;-78
2022/03/20 10:03:26;;;;;;;18.42;4.95;;;26.90;65.80;;;;;;6175623;23;20009;-72
2022/03/20 10:06:17;;;;;;;13.85;4.40;;;27.00;65.80;;;;;;6176202;23;20348;-75
2022/03/20 10:08:56;;;;;;;13.50;4.45;;;27.00;65.40;;;;;;6176361;23;20382;-73
2022/03/20 10:11:23;;;;;;;11.07;4.22;;;27.10;65.30;;;;;;6176890;23;19994;-72
2022/03/20 10:14:14;;;;;;;14.60;4.55;;;27.10;65.00;;;;;;6177069;23;20302;-72
2022/03/20 10:16:48;;;;;;;14.93;8.02;;;27.20;64.70;;;;;;6174829;23;20012;-71
2022/03/20 10:19:24;;;;;;;10.50;6.47;;;27.20;64.50;;;;;;6176586;23;20409;-71
2022/03/20 10:22:10;;;;;;;15.07;6.03;;;27.20;64.40;;;;;;6176377;23;20481;-73
2022/03/20 10:24:38;;;;;;;11.77;6.10;;;27.20;64.20;;;;;;6175226;23;20031;-73
2022/03/20 10:27:09;;;;;;;18.67;6.25;;;27.30;64.30;;;;;;6177078;23;20001;-74
2022/03/20 10:29:46;;;;;;;21.02;5.13;;;27.30;64.00;;;;;;6175382;23;20113;-74
2022/03/20 10:32:13;;;;;;;17.80;5.03;;;27.40;63.80;;;;;;6177120;23;20005;-74
2022/03/20 10:34:55;;;;;;;14.48;5.40;;;27.40;63.70;;;;;;6176231;23;20009;-72
2022/03/20 10:37:57;;;;;;;12.95;5.20;;;27.50;63.70;;;;;;6175972;23;20005;-72
2022/03/20 10:40:28;;;;;;;10.82;4.72;;;27.50;63.40;;;;;;6176774;23;20344;-74
2022/03/20 10:43:14;;;;;;;11.80;6.10;;;27.50;63.20;;;;;;6174512;23;20348;-73
2022/03/20 10:46:01;;;;;;;11.43;4.78;;;27.60;63.00;;;;;;6175715;23;19997;-74
2022/03/20 10:48:38;;;;;;;11.68;4.32;;;27.60;62.70;;;;;;6176570;23;20348;-74
2022/03/20 10:51:07;;;;;;;16.23;4.57;;;27.70;62.70;;;;;;6174904;23;20070;-73
2022/03/20 10:53:53;;;;;;;13.65;4.55;;;27.70;62.70;;;;;;6176039;23;20012;-72
2022/03/20 10:56:20;;;;;;;12.13;3.72;;;27.80;62.50;;;;;;6176056;23;20005;-72
2022/03/20 10:58:47;;;;;;;8.93;3.55;;;27.80;62.10;;;;;;6175090;23;20003;-74
2022/03/20 11:01:13;;;;;;;13.40;3.20;;;27.80;61.70;;;;;;6176317;23;20013;-73
2022/03/20 11:03:41;;;;;;;8.85;3.78;;;27.80;61.70;;;;;;6166324;23;20440;-70
2022/03/20 11:06:08;;;;;;;11.77;3.60;;;27.90;61.70;;;;;;6172031;23;20019;-72
2022/03/20 11:08:38;;;;;;;10.43;4.75;;;27.90;61.60;;;;;;6173376;23;20067;-71
2022/03/20 11:11:08;;;;;;;5.75;3.17;;;27.90;61.40;;;;;;6172215;23;20005;-73
2022/03/20 11:13:37;;;;;;;9.02;3.70;;;27.90;61.20;;;;;;6175412;23;20432;-75
2022/03/20 11:16:07;;;;;;;9.23;4.05;;;27.90;61.10;;;;;;6173629;23;20422;-74
2022/03/20 11:18:38;;;;;;;11.80;4.30;;;27.90;61.10;;;;;;6176603;23;20421;-72
2022/03/20 11:21:05;;;;;;;8.15;3.60;;;27.90;61.20;;;;;;6175002;23;19997;-71
2022/03/20 11:23:34;;;;;;;8.30;3.13;;;28.00;61.20;;;;;;6175851;23;20017;-71
2022/03/20 11:26:03;;;;;;;5.25;3.15;;;28.00;61.30;;;;;;6172478;23;20016;-71
2022/03/20 11:28:43;;;;;;;5.47;2.97;;;28.00;61.10;;;;;;6174798;23;20054;-72
2022/03/20 11:31:10;;;;;;;12.80;3.53;;;28.10;60.90;;;;;;6176039;23;20028;-72
2022/03/20 11:33:37;;;;;;;7.97;3.28;;;28.10;60.80;;;;;;6173830;23;20024;-71
2022/03/20 11:36:03;;;;;;;10.05;3.67;;;28.10;60.60;;;;;;6172189;23;20081;-72
2022/03/20 11:38:31;;;;;;;5.78;2.72;;;28.20;60.70;;;;;;6173968;23;20009;-75
2022/03/20 11:41:19;;;;;;;5.47;4.68;;;28.20;60.60;;;;;;6176222;23;20001;-74
2022/03/20 11:44:15;;;;;;;9.07;5.40;;;28.30;60.70;;;;;;6175221;23;20009;-76
2022/03/20 11:46:43;;;;;;;8.80;3.40;;;28.30;60.40;;;;;;6172510;23;20001;-71
2022/03/20 11:49:17;;;;;;;10.57;3.13;;;28.30;60.30;;;;;;6306692;22;20420;-77
2022/03/20 11:52:06;;;;;;;7.90;2.80;;;28.40;60.30;;;;;;6175522;23;20009;-72
2022/03/20 11:54:41;;;;;;;5.47;3.10;;;28.40;60.20;;;;;;6175053;23;20001;-72
2022/03/20 11:57:26;;;;;;;7.80;3.13;;;28.40;60.10;;;;;;6172917;23;20080;-70
2022/03/20 11:59:57;;;;;;;9.75;4.63;;;28.50;60.10;;;;;;6175483;23;20489;-72
2022/03/20 12:02:48;;;;;;;9.32;4.35;;;28.50;60.00;;;;;;6175645;23;20020;-70
2022/03/20 12:05:38;;;;;;;7.40;4.63;;;28.60;60.00;;;;;;6175709;23;20002;-75
2022/03/20 12:08:29;;;;;;;10.65;4.00;;;28.60;59.90;;;;;;6173084;23;20355;-74
2022/03/20 12:11:10;;;;;;;7.57;3.35;;;28.70;59.80;;;;;;6176032;23;20005;-71
2022/03/20 12:14:08;;;;;;;9.00;4.40;;;28.70;59.70;;;;;;6174926;23;20349;-75
2022/03/20 12:16:44;;;;;;;7.72;4.20;;;28.70;59.40;;;;;;6172202;23;20009;-72
2022/03/20 12:19:15;;;;;;;11.57;4.32;;;28.70;59.30;;;;;;6176019;23;20051;-70
2022/03/20 12:22:06;;;;;;;7.00;3.65;;;28.70;59.40;;;;;;6174844;23;20076;-71
2022/03/20 12:24:36;;;;;;;13.45;5.18;;;28.70;59.50;;;;;;6175675;23;20005;-71
2022/03/20 12:27:23;;;;;;;12.57;4.07;;;28.70;59.60;;;;;;6173840;23;20028;-72
2022/03/20 12:30:02;;;;;;;9.10;3.22;;;28.70;59.50;;;;;;6174664;23;20005;-73
2022/03/20 12:32:48;;;;;;;23.48;14.40;;;28.70;59.30;;;;;;6175768;23;20032;-75
2022/03/20 12:35:14;;;;;;;24.13;12.18;;;28.70;59.30;;;;;;6173986;22;20040;-73
2022/03/20 12:37:43;;;;;;;17.48;7.22;;;28.70;59.30;;;;;;6169883;23;20309;-71
2022/03/20 12:40:16;;;;;;;14.13;6.28;;;28.70;59.40;;;;;;6175870;23;20005;-76
2022/03/20 12:43:07;;;;;;;8.88;3.65;;;28.80;59.50;;;;;;6173058;23;20337;-75
2022/03/20 12:45:36;;;;;;;9.98;3.95;;;28.80;59.40;;;;;;6175952;23;20072;-75
2022/03/20 12:48:21;;;;;;;15.57;3.72;;;28.80;59.30;;;;;;6175457;23;20012;-73
2022/03/20 12:50:50;;;;;;;10.43;3.35;;;28.90;59.30;;;;;;6174695;23;20085;-73
2022/03/20 12:53:21;;;;;;;14.65;5.93;;;28.90;59.10;;;;;;6176277;22;20364;-74
2022/03/20 12:55:55;;;;;;;10.70;4.43;;;28.90;59.20;;;;;;6173853;23;20433;-73
2022/03/20 12:58:23;;;;;;;11.73;4.50;;;28.90;59.50;;;;;;6164236;23;20076;-72
2022/03/20 13:00:52;;;;;;;10.20;4.13;;;28.90;59.60;;;;;;6174255;23;20432;-74
2022/03/20 13:03:20;;;;;;;24.38;5.93;;;28.90;59.60;;;;;;6174533;23;20013;-73
2022/03/20 13:06:00;;;;;;;15.90;4.55;;;28.90;59.70;;;;;;6175664;23;20058;-73
2022/03/20 13:08:27;;;;;;;21.05;3.67;;;28.90;59.40;;;;;;6175968;23;20021;-74
2022/03/20 13:11:00;;;;;;;18.02;5.05;;;28.90;59.40;;;;;;6177210;23;20086;-73
2022/03/20 13:13:36;;;;;;;19.73;5.20;;;28.90;59.30;;;;;;6178057;23;19997;-72
2022/03/20 13:16:04;;;;;;;12.60;3.47;;;28.90;59.20;;;;;;6178250;23;20001;-75
2022/03/20 13:18:32;;;;;;;10.02;3.55;;;28.80;59.10;;;;;;6176182;23;20080;-76
2022/03/20 13:21:05;;;;;;;9.93;4.13;;;28.90;59.20;;;;;;6176183;23;19997;-74